Terminal Aerodrome Forecast
Issued by NWS

Home | Current Version | Previous Version | Text Only | Print | Product List | Glossary On
Versions: 1 2 3 4 5 6 7 8 9 10 11 12 13 14 15 16 17
000
FTUS42 KMLB 250542
TAFFPR
TAF
KFPR 250542Z 2506/2606 31005KT P6SM OVC010
     FM250800 32003KT P6SM FEW008 SCT012
      TEMPO 2509/2512 3SM BR BKN008
     FM251500 34006KT P6SM SCT035
     FM260000 VRB03KT P6SM SCT250=

USA.gov is the U.S. government's official web portal to all federal, state and local government web resources and services.